sensor_id;sensor_type;location;lat;lon;timestamp;pressure;altitude;pressure_sealevel;temperature;humidity
21566;BME280;10943;48.738;9.320;2022-07-03T00:01:00;99020.47;;;19.73;57.09
21566;BME280;10943;48.738;9.320;2022-07-03T00:03:29;99025.22;;;19.49;57.56
21566;BME280;10943;48.738;9.320;2022-07-03T00:05:57;99027.47;;;19.76;56.82
21566;BME280;10943;48.738;9.320;2022-07-03T00:08:25;99029.09;;;19.53;57.27
21566;BME280;10943;48.738;9.320;2022-07-03T00:10:55;99023.91;;;19.94;55.96
21566;BME280;10943;48.738;9.320;2022-07-03T00:13:23;99025.34;;;19.92;55.63
21566;BME280;10943;48.738;9.320;2022-07-03T00:15:51;99021.09;;;19.94;55.90
21566;BME280;10943;48.738;9.320;2022-07-03T00:18:18;99020.91;;;20.10;55.69
21566;BME280;10943;48.738;9.320;2022-07-03T00:20:49;99025.03;;;19.93;56.35
21566;BME280;10943;48.738;9.320;2022-07-03T00:23:22;99015.03;;;19.53;56.80
21566;BME280;10943;48.738;9.320;2022-07-03T00:25:51;99016.47;;;19.50;57.08
21566;BME280;10943;48.738;9.320;2022-07-03T00:28:19;99022.28;;;19.29;58.07
21566;BME280;10943;48.738;9.320;2022-07-03T00:30:48;99032.75;;;19.53;57.82
21566;BME280;10943;48.738;9.320;2022-07-03T00:33:17;99024.75;;;19.66;57.25
21566;BME280;10943;48.738;9.320;2022-07-03T00:35:48;99027.25;;;19.67;57.39
21566;BME280;10943;48.738;9.320;2022-07-03T00:38:17;99028.91;;;19.44;58.13
21566;BME280;10943;48.738;9.320;2022-07-03T00:41:29;99028.72;;;19.30;58.92
21566;BME280;10943;48.738;9.320;2022-07-03T00:43:58;99014.09;;;19.33;58.46
21566;BME280;10943;48.738;9.320;2022-07-03T00:46:28;99020.16;;;19.45;58.31
21566;BME280;10943;48.738;9.320;2022-07-03T00:48:57;99023.28;;;19.44;58.23
21566;BME280;10943;48.738;9.320;2022-07-03T00:51:28;99027.22;;;19.43;58.04
21566;BME280;10943;48.738;9.320;2022-07-03T00:53:58;99022.53;;;19.33;58.33
21566;BME280;10943;48.738;9.320;2022-07-03T00:56:30;99027.31;;;19.33;59.15
21566;BME280;10943;48.738;9.320;2022-07-03T00:59:00;99028.00;;;19.19;59.21
21566;BME280;10943;48.738;9.320;2022-07-03T01:01:39;99022.53;;;19.33;59.22
21566;BME280;10943;48.738;9.320;2022-07-03T01:04:31;99025.31;;;19.38;58.70
21566;BME280;10943;48.738;9.320;2022-07-03T01:07:14;99036.28;;;19.64;57.79
21566;BME280;10943;48.738;9.320;2022-07-03T01:10:18;99038.22;;;19.69;57.16
21566;BME280;10943;48.738;9.320;2022-07-03T01:13:14;99031.25;;;19.32;59.03
21566;BME280;10943;48.738;9.320;2022-07-03T01:16:07;99034.75;;;19.18;59.62
21566;BME280;10943;48.738;9.320;2022-07-03T01:18:59;99033.66;;;19.14;59.58
21566;BME280;10943;48.738;9.320;2022-07-03T01:22:44;99033.41;;;19.10;59.95
21566;BME280;10943;48.738;9.320;2022-07-03T01:25:25;99027.38;;;18.88;60.22
21566;BME280;10943;48.738;9.320;2022-07-03T01:30:31;99016.22;;;18.77;59.89
21566;BME280;10943;48.738;9.320;2022-07-03T01:33:14;99018.78;;;18.69;60.02
21566;BME280;10943;48.738;9.320;2022-07-03T01:38:36;99020.94;;;18.82;59.17
21566;BME280;10943;48.738;9.320;2022-07-03T01:41:08;99020.59;;;19.28;58.92
21566;BME280;10943;48.738;9.320;2022-07-03T01:43:56;99021.94;;;19.02;59.61
21566;BME280;10943;48.738;9.320;2022-07-03T01:46:31;99017.88;;;18.78;60.78
21566;BME280;10943;48.738;9.320;2022-07-03T01:49:01;99021.53;;;18.79;58.91
21566;BME280;10943;48.738;9.320;2022-07-03T01:51:30;99020.47;;;18.70;59.65
21566;BME280;10943;48.738;9.320;2022-07-03T01:54:01;99018.53;;;18.65;60.53
21566;BME280;10943;48.738;9.320;2022-07-03T01:56:32;99013.25;;;18.58;60.96
21566;BME280;10943;48.738;9.320;2022-07-03T01:59:08;99029.19;;;18.68;61.01
21566;BME280;10943;48.738;9.320;2022-07-03T02:07:13;99021.63;;;18.63;61.10
21566;BME280;10943;48.738;9.320;2022-07-03T02:10:05;99018.13;;;18.42;61.95
21566;BME280;10943;48.738;9.320;2022-07-03T02:12:52;99024.56;;;18.43;61.98
21566;BME280;10943;48.738;9.320;2022-07-03T02:15:33;99021.16;;;18.46;61.90
21566;BME280;10943;48.738;9.320;2022-07-03T02:18:24;99021.22;;;18.36;61.89
21566;BME280;10943;48.738;9.320;2022-07-03T02:21:18;99016.56;;;18.16;62.95
21566;BME280;10943;48.738;9.320;2022-07-03T02:24:19;99028.09;;;18.09;63.00
21566;BME280;10943;48.738;9.320;2022-07-03T02:27:03;99017.16;;;18.12;61.98
21566;BME280;10943;48.738;9.320;2022-07-03T02:29:36;99018.28;;;18.06;62.96
21566;BME280;10943;48.738;9.320;2022-07-03T02:32:15;99009.84;;;18.11;63.10
21566;BME280;10943;48.738;9.320;2022-07-03T02:35:06;99010.47;;;17.93;63.96
21566;BME280;10943;48.738;9.320;2022-07-03T02:38:01;99013.00;;;18.00;63.24
21566;BME280;10943;48.738;9.320;2022-07-03T02:41:08;99012.44;;;17.82;63.10
21566;BME280;10943;48.738;9.320;2022-07-03T02:46:38;99016.91;;;17.88;63.70
21566;BME280;10943;48.738;9.320;2022-07-03T03:01:29;99028.97;;;17.89;64.08
21566;BME280;10943;48.738;9.320;2022-07-03T03:04:21;99032.00;;;18.13;63.03
21566;BME280;10943;48.738;9.320;2022-07-03T03:09:47;99038.28;;;17.63;64.71
21566;BME280;10943;48.738;9.320;2022-07-03T03:12:30;99036.91;;;17.61;65.08
21566;BME280;10943;48.738;9.320;2022-07-03T03:15:04;99040.84;;;17.34;66.22
21566;BME280;10943;48.738;9.320;2022-07-03T03:17:42;99044.53;;;17.19;66.45
21566;BME280;10943;48.738;9.320;2022-07-03T03:20:16;99047.31;;;17.24;66.73
21566;BME280;10943;48.738;9.320;2022-07-03T03:26:01;99045.63;;;17.34;66.53
21566;BME280;10943;48.738;9.320;2022-07-03T03:28:28;99054.03;;;17.28;66.25
21566;BME280;10943;48.738;9.320;2022-07-03T03:30:56;99051.75;;;17.51;65.91
21566;BME280;10943;48.738;9.320;2022-07-03T03:33:25;99056.78;;;17.75;65.09
21566;BME280;10943;48.738;9.320;2022-07-03T03:35:55;99059.34;;;17.51;66.03
21566;BME280;10943;48.738;9.320;2022-07-03T03:38:26;99062.13;;;17.66;65.37
21566;BME280;10943;48.738;9.320;2022-07-03T03:41:19;99063.53;;;17.69;65.19
21566;BME280;10943;48.738;9.320;2022-07-03T03:43:47;99059.59;;;17.70;65.02
21566;BME280;10943;48.738;9.320;2022-07-03T03:46:14;99057.06;;;17.73;64.96
21566;BME280;10943;48.738;9.320;2022-07-03T03:48:42;99069.63;;;18.07;63.47
21566;BME280;10943;48.738;9.320;2022-07-03T03:51:12;99063.44;;;18.10;63.94
21566;BME280;10943;48.738;9.320;2022-07-03T03:53:42;99057.72;;;18.30;62.97
21566;BME280;10943;48.738;9.320;2022-07-03T03:56:14;99066.78;;;18.17;63.52
21566;BME280;10943;48.738;9.320;2022-07-03T03:58:43;99069.09;;;18.00;64.19
21566;BME280;10943;48.738;9.320;2022-07-03T04:01:12;99068.53;;;17.87;64.96
21566;BME280;10943;48.738;9.320;2022-07-03T04:03:40;99066.28;;;18.00;64.14
21566;BME280;10943;48.738;9.320;2022-07-03T04:06:08;99072.69;;;18.10;63.72
21566;BME280;10943;48.738;9.320;2022-07-03T04:08:37;99065.69;;;17.92;64.75
21566;BME280;10943;48.738;9.320;2022-07-03T04:11:04;99068.56;;;17.72;64.73
21566;BME280;10943;48.738;9.320;2022-07-03T04:13:40;99065.72;;;17.82;65.00
21566;BME280;10943;48.738;9.320;2022-07-03T04:16:08;99060.06;;;18.13;64.21
21566;BME280;10943;48.738;9.320;2022-07-03T04:19:01;99067.66;;;18.07;64.14
21566;BME280;10943;48.738;9.320;2022-07-03T04:21:29;99061.19;;;18.12;63.63
21566;BME280;10943;48.738;9.320;2022-07-03T04:23:57;99070.72;;;18.06;63.09
21566;BME280;10943;48.738;9.320;2022-07-03T04:26:25;99070.38;;;18.28;63.41
21566;BME280;10943;48.738;9.320;2022-07-03T04:28:52;99070.94;;;18.30;63.62
21566;BME280;10943;48.738;9.320;2022-07-03T04:31:19;99070.88;;;18.45;63.12
21566;BME280;10943;48.738;9.320;2022-07-03T04:33:47;99073.97;;;18.44;62.70
21566;BME280;10943;48.738;9.320;2022-07-03T04:36:15;99076.69;;;18.59;62.74
21566;BME280;10943;48.738;9.320;2022-07-03T04:38:46;99088.38;;;20.15;58.96
21566;BME280;10943;48.738;9.320;2022-07-03T04:41:15;99091.28;;;22.29;52.72
21566;BME280;10943;48.738;9.320;2022-07-03T04:43:44;99089.00;;;24.40;47.21
21566;BME280;10943;48.738;9.320;2022-07-03T04:46:11;99091.31;;;25.92;43.57
21566;BME280;10943;48.738;9.320;2022-07-03T04:48:38;99099.00;;;27.29;40.56
21566;BME280;10943;48.738;9.320;2022-07-03T04:51:06;99105.19;;;28.44;37.83
21566;BME280;10943;48.738;9.320;2022-07-03T04:53:34;99105.50;;;29.70;35.20
21566;BME280;10943;48.738;9.320;2022-07-03T04:56:02;99107.81;;;30.69;33.26
21566;BME280;10943;48.738;9.320;2022-07-03T04:58:30;99115.31;;;31.09;32.37
21566;BME280;10943;48.738;9.320;2022-07-03T05:00:59;99120.78;;;32.12;31.05
21566;BME280;10943;48.738;9.320;2022-07-03T05:03:27;99110.47;;;33.27;29.19
21566;BME280;10943;48.738;9.320;2022-07-03T05:05:54;99123.84;;;32.89;28.86
21566;BME280;10943;48.738;9.320;2022-07-03T05:08:22;99117.97;;;32.82;29.19
21566;BME280;10943;48.738;9.320;2022-07-03T05:10:49;99123.63;;;33.28;28.39
21566;BME280;10943;48.738;9.320;2022-07-03T05:13:17;99120.59;;;33.48;28.04
21566;BME280;10943;48.738;9.320;2022-07-03T05:15:47;99122.03;;;33.34;28.24
21566;BME280;10943;48.738;9.320;2022-07-03T05:18:14;99127.00;;;33.98;26.90
21566;BME280;10943;48.738;9.320;2022-07-03T05:20:48;99130.03;;;34.13;26.87
21566;BME280;10943;48.738;9.320;2022-07-03T05:23:17;99121.16;;;34.29;26.76
21566;BME280;10943;48.738;9.320;2022-07-03T05:25:45;99123.34;;;35.47;25.38
21566;BME280;10943;48.738;9.320;2022-07-03T05:28:12;99125.63;;;35.16;25.78
21566;BME280;10943;48.738;9.320;2022-07-03T05:30:40;99126.63;;;35.42;25.30
21566;BME280;10943;48.738;9.320;2022-07-03T05:33:07;99129.00;;;35.32;25.46
21566;BME280;10943;48.738;9.320;2022-07-03T05:35:34;99130.69;;;35.33;25.62
21566;BME280;10943;48.738;9.320;2022-07-03T05:38:02;99133.56;;;36.22;24.34
21566;BME280;10943;48.738;9.320;2022-07-03T05:40:31;99138.13;;;37.53;23.11
21566;BME280;10943;48.738;9.320;2022-07-03T05:42:59;99138.97;;;37.42;22.39
21566;BME280;10943;48.738;9.320;2022-07-03T05:45:30;99138.97;;;36.41;23.52
21566;BME280;10943;48.738;9.320;2022-07-03T05:47:57;99131.69;;;35.66;24.51
21566;BME280;10943;48.738;9.320;2022-07-03T05:50:28;99136.06;;;36.38;23.73
21566;BME280;10943;48.738;9.320;2022-07-03T05:52:55;99139.31;;;37.62;22.29
21566;BME280;10943;48.738;9.320;2022-07-03T05:55:23;99141.06;;;37.20;22.96
21566;BME280;10943;48.738;9.320;2022-07-03T05:57:52;99135.22;;;37.45;22.72
21566;BME280;10943;48.738;9.320;2022-07-03T06:00:22;99138.72;;;38.11;21.79
21566;BME280;10943;48.738;9.320;2022-07-03T06:02:51;99136.41;;;38.55;21.00
21566;BME280;10943;48.738;9.320;2022-07-03T06:05:18;99121.63;;;37.42;22.15
21566;BME280;10943;48.738;9.320;2022-07-03T06:07:46;99132.09;;;38.77;21.52
21566;BME280;10943;48.738;9.320;2022-07-03T06:10:13;99128.91;;;39.48;20.41
21566;BME280;10943;48.738;9.320;2022-07-03T06:12:41;99134.25;;;39.11;20.37
21566;BME280;10943;48.738;9.320;2022-07-03T06:15:09;99127.97;;;39.58;20.28
21566;BME280;10943;48.738;9.320;2022-07-03T06:17:37;99127.91;;;40.82;18.92
21566;BME280;10943;48.738;9.320;2022-07-03T06:20:06;99127.81;;;40.35;19.02
21566;BME280;10943;48.738;9.320;2022-07-03T06:22:34;99128.28;;;40.61;19.11
21566;BME280;10943;48.738;9.320;2022-07-03T06:25:04;99139.75;;;41.19;18.28
21566;BME280;10943;48.738;9.320;2022-07-03T06:27:32;99124.84;;;40.38;19.36
21566;BME280;10943;48.738;9.320;2022-07-03T06:29:59;99133.91;;;40.95;18.62
21566;BME280;10943;48.738;9.320;2022-07-03T06:32:27;99119.44;;;42.19;17.86
21566;BME280;10943;48.738;9.320;2022-07-03T06:34:54;99124.63;;;40.80;19.09
21566;BME280;10943;48.738;9.320;2022-07-03T06:37:22;99119.41;;;39.82;20.00
21566;BME280;10943;48.738;9.320;2022-07-03T06:39:51;99118.72;;;40.33;19.87
21566;BME280;10943;48.738;9.320;2022-07-03T06:42:24;99122.00;;;41.77;18.47
21566;BME280;10943;48.738;9.320;2022-07-03T06:44:52;99126.16;;;43.19;17.04
21566;BME280;10943;48.738;9.320;2022-07-03T06:47:19;99124.59;;;42.48;17.38
21566;BME280;10943;48.738;9.320;2022-07-03T06:49:47;99120.00;;;42.31;17.90
21566;BME280;10943;48.738;9.320;2022-07-03T06:52:14;99124.44;;;42.89;17.22
21566;BME280;10943;48.738;9.320;2022-07-03T06:54:42;99116.94;;;42.18;18.06
21566;BME280;10943;48.738;9.320;2022-07-03T06:57:13;99122.22;;;41.46;18.77
21566;BME280;10943;48.738;9.320;2022-07-03T06:59:44;99117.81;;;41.78;18.49
21566;BME280;10943;48.738;9.320;2022-07-03T07:02:14;99116.84;;;41.85;18.49
21566;BME280;10943;48.738;9.320;2022-07-03T07:04:42;99118.69;;;41.75;18.33
21566;BME280;10943;48.738;9.320;2022-07-03T07:07:16;99123.50;;;42.59;17.86
21566;BME280;10943;48.738;9.320;2022-07-03T07:09:44;99126.63;;;43.76;16.82
21566;BME280;10943;48.738;9.320;2022-07-03T07:12:13;99134.41;;;43.54;17.14
21566;BME280;10943;48.738;9.320;2022-07-03T07:14:41;99121.84;;;42.41;17.97
21566;BME280;10943;48.738;9.320;2022-07-03T07:17:08;99124.69;;;41.88;18.80
21566;BME280;10943;48.738;9.320;2022-07-03T07:19:36;99122.25;;;43.09;17.76
21566;BME280;10943;48.738;9.320;2022-07-03T07:22:03;99116.47;;;44.23;16.69
21566;BME280;10943;48.738;9.320;2022-07-03T07:24:31;99122.19;;;44.27;16.30
21566;BME280;10943;48.738;9.320;2022-07-03T07:27:00;99119.06;;;44.86;15.96
21566;BME280;10943;48.738;9.320;2022-07-03T07:29:28;99116.63;;;45.19;15.88
21566;BME280;10943;48.738;9.320;2022-07-03T07:31:55;99122.91;;;44.57;16.19
21566;BME280;10943;48.738;9.320;2022-07-03T07:34:23;99116.81;;;44.90;15.85
21566;BME280;10943;48.738;9.320;2022-07-03T07:36:50;99115.63;;;46.24;14.87
21566;BME280;10943;48.738;9.320;2022-07-03T07:39:17;99125.59;;;47.08;14.07
21566;BME280;10943;48.738;9.320;2022-07-03T07:41:45;99126.69;;;46.92;14.43
21566;BME280;10943;48.738;9.320;2022-07-03T07:44:17;99131.84;;;46.38;14.58
21566;BME280;10943;48.738;9.320;2022-07-03T07:46:46;99124.88;;;45.69;15.50
21566;BME280;10943;48.738;9.320;2022-07-03T07:49:13;99128.69;;;47.23;14.23
21566;BME280;10943;48.738;9.320;2022-07-03T07:51:41;99117.44;;;45.99;15.45
21566;BME280;10943;48.738;9.320;2022-07-03T07:54:08;99120.44;;;46.40;15.01
21566;BME280;10943;48.738;9.320;2022-07-03T07:56:36;99125.03;;;46.91;14.42
21566;BME280;10943;48.738;9.320;2022-07-03T07:59:09;99121.19;;;47.40;13.46
21566;BME280;10943;48.738;9.320;2022-07-03T08:01:37;99118.56;;;47.05;13.82
21566;BME280;10943;48.738;9.320;2022-07-03T08:04:24;99113.19;;;47.87;12.93
21566;BME280;10943;48.738;9.320;2022-07-03T08:07:16;99116.31;;;48.45;12.68
21566;BME280;10943;48.738;9.320;2022-07-03T08:09:45;99109.97;;;49.29;11.87
21566;BME280;10943;48.738;9.320;2022-07-03T08:12:13;99099.75;;;50.59;11.23
21566;BME280;10943;48.738;9.320;2022-07-03T08:14:42;99099.16;;;51.52;10.54
21566;BME280;10943;48.738;9.320;2022-07-03T08:17:09;99100.91;;;51.64;10.40
21566;BME280;10943;48.738;9.320;2022-07-03T08:19:37;99095.59;;;51.69;9.91
21566;BME280;10943;48.738;9.320;2022-07-03T08:22:05;99095.13;;;51.08;9.94
21566;BME280;10943;48.738;9.320;2022-07-03T08:24:33;99094.84;;;51.27;9.23
21566;BME280;10943;48.738;9.320;2022-07-03T08:27:01;99094.31;;;50.36;9.67
21566;BME280;10943;48.738;9.320;2022-07-03T08:29:28;99090.97;;;49.30;10.42
21566;BME280;10943;48.738;9.320;2022-07-03T08:32:03;99078.06;;;49.96;9.86
21566;BME280;10943;48.738;9.320;2022-07-03T08:34:31;99088.03;;;50.14;9.64
21566;BME280;10943;48.738;9.320;2022-07-03T08:37:01;99081.63;;;50.15;9.47
21566;BME280;10943;48.738;9.320;2022-07-03T08:39:28;99080.19;;;50.26;9.48
21566;BME280;10943;48.738;9.320;2022-07-03T08:41:57;99076.41;;;49.95;9.71
21566;BME280;10943;48.738;9.320;2022-07-03T08:44:28;99076.66;;;50.07;9.33
21566;BME280;10943;48.738;9.320;2022-07-03T08:46:59;99079.09;;;50.74;8.98
21566;BME280;10943;48.738;9.320;2022-07-03T08:49:29;99079.47;;;50.66;8.83
21566;BME280;10943;48.738;9.320;2022-07-03T08:52:00;99079.38;;;51.58;8.27
21566;BME280;10943;48.738;9.320;2022-07-03T08:54:28;99073.97;;;52.09;8.01
21566;BME280;10943;48.738;9.320;2022-07-03T08:56:56;99076.47;;;52.17;7.58
21566;BME280;10943;48.738;9.320;2022-07-03T08:59:27;99070.81;;;51.87;7.19
21566;BME280;10943;48.738;9.320;2022-07-03T09:02:02;99067.34;;;51.00;7.68
21566;BME280;10943;48.738;9.320;2022-07-03T09:04:35;99065.22;;;51.21;7.40
21566;BME280;10943;48.738;9.320;2022-07-03T09:07:07;99063.84;;;51.90;7.70
21566;BME280;10943;48.738;9.320;2022-07-03T09:09:35;99066.88;;;51.95;7.61
21566;BME280;10943;48.738;9.320;2022-07-03T09:12:04;99068.91;;;52.15;7.66
21566;BME280;10943;48.738;9.320;2022-07-03T09:14:32;99061.13;;;52.93;7.34
21566;BME280;10943;48.738;9.320;2022-07-03T09:17:00;99075.34;;;52.46;7.37
21566;BME280;10943;48.738;9.320;2022-07-03T09:19:47;99063.91;;;51.95;7.22
21566;BME280;10943;48.738;9.320;2022-07-03T09:22:29;99064.03;;;51.54;7.60
21566;BME280;10943;48.738;9.320;2022-07-03T09:25:12;99059.81;;;51.66;7.69
21566;BME280;10943;48.738;9.320;2022-07-03T09:27:52;99063.25;;;52.12;7.59
21566;BME280;10943;48.738;9.320;2022-07-03T09:30:20;99059.13;;;52.04;7.36
21566;BME280;10943;48.738;9.320;2022-07-03T09:32:48;99057.66;;;52.57;6.98
21566;BME280;10943;48.738;9.320;2022-07-03T09:35:25;99057.19;;;52.01;7.21
21566;BME280;10943;48.738;9.320;2022-07-03T09:38:02;99055.31;;;52.67;7.06
21566;BME280;10943;48.738;9.320;2022-07-03T09:40:54;99058.78;;;53.15;6.86
21566;BME280;10943;48.738;9.320;2022-07-03T09:43:31;99053.06;;;52.51;7.53
21566;BME280;10943;48.738;9.320;2022-07-03T09:46:01;99049.41;;;53.22;7.08
21566;BME280;10943;48.738;9.320;2022-07-03T09:48:51;99054.00;;;52.36;7.16
21566;BME280;10943;48.738;9.320;2022-07-03T09:51:22;99050.75;;;52.34;7.27
21566;BME280;10943;48.738;9.320;2022-07-03T09:54:00;99043.28;;;52.07;7.55
21566;BME280;10943;48.738;9.320;2022-07-03T09:56:35;99034.09;;;50.99;7.48
21566;BME280;10943;48.738;9.320;2022-07-03T09:59:14;99038.00;;;50.04;8.14
21566;BME280;10943;48.738;9.320;2022-07-03T10:01:45;99044.59;;;50.65;7.83
21566;BME280;10943;48.738;9.320;2022-07-03T10:04:22;99042.75;;;50.67;7.50
21566;BME280;10943;48.738;9.320;2022-07-03T10:06:59;99043.06;;;48.81;8.57
21566;BME280;10943;48.738;9.320;2022-07-03T10:09:30;99027.25;;;50.52;8.09
21566;BME280;10943;48.738;9.320;2022-07-03T10:12:03;99042.19;;;52.36;6.97
21566;BME280;10943;48.738;9.320;2022-07-03T10:14:33;99048.31;;;53.14;6.89
21566;BME280;10943;48.738;9.320;2022-07-03T10:17:00;99044.56;;;53.24;6.90
21566;BME280;10943;48.738;9.320;2022-07-03T10:19:37;99041.31;;;53.22;6.98
21566;BME280;10943;48.738;9.320;2022-07-03T10:22:19;99034.88;;;53.29;6.60
21566;BME280;10943;48.738;9.320;2022-07-03T10:24:50;99031.19;;;53.69;6.28
21566;BME280;10943;48.738;9.320;2022-07-03T10:27:20;99032.88;;;52.11;7.55
21566;BME280;10943;48.738;9.320;2022-07-03T10:29:52;99045.69;;;52.35;7.38
21566;BME280;10943;48.738;9.320;2022-07-03T10:32:20;99028.38;;;51.63;7.44
21566;BME280;10943;48.738;9.320;2022-07-03T10:34:47;99024.75;;;48.28;8.95
21566;BME280;10943;48.738;9.320;2022-07-03T10:37:18;99025.63;;;50.00;8.20
21566;BME280;10943;48.738;9.320;2022-07-03T10:40:11;99028.94;;;50.74;8.14
21566;BME280;10943;48.738;9.320;2022-07-03T10:43:27;99027.63;;;50.60;8.33
21566;BME280;10943;48.738;9.320;2022-07-03T10:46:22;99026.53;;;50.57;8.05
21566;BME280;10943;48.738;9.320;2022-07-03T10:49:04;99022.09;;;50.67;8.29
21566;BME280;10943;48.738;9.320;2022-07-03T10:54:14;99005.56;;;48.42;9.19
21566;BME280;10943;48.738;9.320;2022-07-03T10:57:12;99001.59;;;49.18;9.03
21566;BME280;10943;48.738;9.320;2022-07-03T11:05:42;99003.13;;;51.36;8.43
21566;BME280;10943;48.738;9.320;2022-07-03T11:08:10;99007.25;;;52.40;7.71
21566;BME280;10943;48.738;9.320;2022-07-03T11:10:40;99005.16;;;51.04;8.55
21566;BME280;10943;48.738;9.320;2022-07-03T11:13:14;98995.19;;;50.24;8.15
21566;BME280;10943;48.738;9.320;2022-07-03T11:15:53;98996.75;;;50.76;8.25
21566;BME280;10943;48.738;9.320;2022-07-03T11:18:56;98986.78;;;50.02;8.36
21566;BME280;10943;48.738;9.320;2022-07-03T11:21:36;98993.84;;;50.40;8.05
21566;BME280;10943;48.738;9.320;2022-07-03T11:24:43;98982.13;;;50.66;7.95
21566;BME280;10943;48.738;9.320;2022-07-03T11:27:20;98979.91;;;51.03;7.90
21566;BME280;10943;48.738;9.320;2022-07-03T11:29:56;98983.41;;;51.27;8.22
21566;BME280;10943;48.738;9.320;2022-07-03T11:32:48;98977.25;;;50.63;8.56
21566;BME280;10943;48.738;9.320;2022-07-03T11:35:52;98971.88;;;51.50;7.60
21566;BME280;10943;48.738;9.320;2022-07-03T11:38:29;98977.66;;;50.92;8.42
21566;BME280;10943;48.738;9.320;2022-07-03T11:40:59;98963.91;;;50.12;8.53
21566;BME280;10943;48.738;9.320;2022-07-03T11:43:29;98963.94;;;50.32;8.45
21566;BME280;10943;48.738;9.320;2022-07-03T11:45:59;98958.16;;;50.02;8.81
21566;BME280;10943;48.738;9.320;2022-07-03T11:48:28;98947.22;;;49.58;9.05
21566;BME280;10943;48.738;9.320;2022-07-03T11:51:04;98960.94;;;48.44;9.20
21566;BME280;10943;48.738;9.320;2022-07-03T11:53:35;98948.69;;;48.69;9.89
21566;BME280;10943;48.738;9.320;2022-07-03T11:59:02;98944.41;;;47.36;10.19
21566;BME280;10943;48.738;9.320;2022-07-03T12:02:02;98949.69;;;48.18;9.81
21566;BME280;10943;48.738;9.320;2022-07-03T12:04:31;98944.75;;;47.48;10.33
21566;BME280;10943;48.738;9.320;2022-07-03T12:07:00;98943.00;;;46.94;10.39
21566;BME280;10943;48.738;9.320;2022-07-03T12:09:34;98941.31;;;47.92;10.76
21566;BME280;10943;48.738;9.320;2022-07-03T12:12:11;98940.38;;;48.68;9.60
21566;BME280;10943;48.738;9.320;2022-07-03T12:14:46;98942.47;;;48.19;9.79
21566;BME280;10943;48.738;9.320;2022-07-03T12:17:24;98936.81;;;47.72;9.47
21566;BME280;10943;48.738;9.320;2022-07-03T12:19:53;98937.19;;;47.56;10.58
21566;BME280;10943;48.738;9.320;2022-07-03T12:22:32;98935.88;;;48.33;9.44
21566;BME280;10943;48.738;9.320;2022-07-03T12:25:09;98927.84;;;46.68;10.39
21566;BME280;10943;48.738;9.320;2022-07-03T12:27:44;98921.28;;;46.55;10.45
21566;BME280;10943;48.738;9.320;2022-07-03T12:30:21;98920.28;;;46.30;10.79
21566;BME280;10943;48.738;9.320;2022-07-03T12:32:55;98913.16;;;46.50;10.85
21566;BME280;10943;48.738;9.320;2022-07-03T12:35:26;98906.03;;;46.01;10.89
21566;BME280;10943;48.738;9.320;2022-07-03T12:37:55;98904.16;;;43.81;12.19
21566;BME280;10943;48.738;9.320;2022-07-03T12:40:22;98900.13;;;42.81;13.16
21566;BME280;10943;48.738;9.320;2022-07-03T12:42:54;98891.75;;;44.86;12.13
21566;BME280;10943;48.738;9.320;2022-07-03T12:45:27;98896.81;;;45.80;11.92
21566;BME280;10943;48.738;9.320;2022-07-03T12:47:59;98895.41;;;46.53;11.52
21566;BME280;10943;48.738;9.320;2022-07-03T12:50:50;98891.41;;;45.60;11.10
21566;BME280;10943;48.738;9.320;2022-07-03T12:53:30;98882.41;;;45.23;11.78
21566;BME280;10943;48.738;9.320;2022-07-03T12:56:07;98880.69;;;44.68;11.96
21566;BME280;10943;48.738;9.320;2022-07-03T12:58:43;98877.63;;;44.14;12.44
21566;BME280;10943;48.738;9.320;2022-07-03T13:01:36;98868.69;;;44.66;12.43
21566;BME280;10943;48.738;9.320;2022-07-03T13:04:09;98872.09;;;44.16;12.36
21566;BME280;10943;48.738;9.320;2022-07-03T13:06:44;98869.44;;;44.09;13.37
21566;BME280;10943;48.738;9.320;2022-07-03T13:09:15;98873.59;;;42.92;13.63
21566;BME280;10943;48.738;9.320;2022-07-03T13:11:43;98853.47;;;43.24;13.51
21566;BME280;10943;48.738;9.320;2022-07-03T13:14:16;98853.38;;;43.53;12.78
21566;BME280;10943;48.738;9.320;2022-07-03T13:16:50;98855.66;;;42.18;13.81
21566;BME280;10943;48.738;9.320;2022-07-03T13:19:22;98850.84;;;42.12;14.01
21566;BME280;10943;48.738;9.320;2022-07-03T13:21:55;98851.31;;;41.94;13.78
21566;BME280;10943;48.738;9.320;2022-07-03T13:24:25;98861.25;;;40.86;14.11
21566;BME280;10943;48.738;9.320;2022-07-03T13:26:56;98847.84;;;40.72;14.29
21566;BME280;10943;48.738;9.320;2022-07-03T13:29:26;98851.03;;;40.38;14.12
21566;BME280;10943;48.738;9.320;2022-07-03T13:31:54;98841.78;;;39.75;15.17
21566;BME280;10943;48.738;9.320;2022-07-03T13:34:24;98844.06;;;39.02;15.07
21566;BME280;10943;48.738;9.320;2022-07-03T13:36:52;98855.84;;;39.22;15.71
21566;BME280;10943;48.738;9.320;2022-07-03T13:39:19;98846.03;;;39.09;16.38
21566;BME280;10943;48.738;9.320;2022-07-03T13:41:46;98837.22;;;38.89;15.58
21566;BME280;10943;48.738;9.320;2022-07-03T13:44:14;98839.75;;;38.52;17.66
21566;BME280;10943;48.738;9.320;2022-07-03T13:46:41;98837.69;;;38.49;16.15
21566;BME280;10943;48.738;9.320;2022-07-03T13:49:36;98828.84;;;38.29;16.21
21566;BME280;10943;48.738;9.320;2022-07-03T13:52:04;98830.63;;;38.54;15.91
21566;BME280;10943;48.738;9.320;2022-07-03T13:54:32;98832.59;;;38.22;17.47
21566;BME280;10943;48.738;9.320;2022-07-03T13:57:03;98835.91;;;37.83;17.73
21566;BME280;10943;48.738;9.320;2022-07-03T13:59:31;98825.25;;;37.65;17.47
21566;BME280;10943;48.738;9.320;2022-07-03T14:02:00;98822.44;;;37.61;18.90
21566;BME280;10943;48.738;9.320;2022-07-03T14:04:27;98809.69;;;37.52;18.49
21566;BME280;10943;48.738;9.320;2022-07-03T14:06:57;98805.03;;;37.02;17.05
21566;BME280;10943;48.738;9.320;2022-07-03T14:09:26;98794.47;;;37.44;17.19
21566;BME280;10943;48.738;9.320;2022-07-03T14:11:55;98787.41;;;37.48;16.87
21566;BME280;10943;48.738;9.320;2022-07-03T14:14:22;98807.53;;;37.03;16.94
21566;BME280;10943;48.738;9.320;2022-07-03T14:16:49;98796.88;;;36.93;17.10
21566;BME280;10943;48.738;9.320;2022-07-03T14:19:18;98798.56;;;36.87;17.09